Time;durP1;ratioP1;P1;durP2;ratioP2;P2;SDS_P1;SDS_P2;PMS_P1;PMS_P2;Temp;Humidity;BMP_temperature;BMP_pressure;BME280_temperature;BME280_humidity;BME280_pressure;Samples;Min_cycle;Max_cycle;Signal;HPM_P1;HPM_P2
2022/04/17 00:01:14;;;;;;;4.00;2.67;;;;;;;-139.48;100.00;61774.03;4996011;28;20065;-70
2022/04/17 00:03:57;;;;;;;4.70;2.70;;;;;;;-139.48;100.00;61774.03;4996547;28;20057;-71
2022/04/17 00:06:42;;;;;;;4.72;3.15;;;;;;;-139.48;100.00;61774.03;4995296;28;20097;-70
2022/04/17 00:09:26;;;;;;;4.05;2.80;;;;;;;-139.48;100.00;61774.03;4995556;28;20513;-71
2022/04/17 00:12:11;;;;;;;16.02;3.05;;;;;;;-139.48;100.00;61774.03;4996175;28;20050;-71
2022/04/17 00:14:55;;;;;;;3.63;2.83;;;;;;;-139.48;100.00;61774.03;4995391;28;20116;-70
2022/04/17 00:17:42;;;;;;;5.20;2.58;;;;;;;-139.48;100.00;61774.03;4995076;28;20073;-70
2022/04/17 00:20:26;;;;;;;5.82;3.00;;;;;;;-139.48;100.00;61774.03;4994646;28;20049;-71
2022/04/17 00:23:10;;;;;;;4.53;3.03;;;;;;;-139.48;100.00;61774.03;4994919;28;20129;-70
2022/04/17 00:25:54;;;;;;;3.95;2.83;;;;;;;-139.48;100.00;61774.03;4994929;28;20057;-70
2022/04/17 00:28:39;;;;;;;4.68;3.20;;;;;;;-139.48;100.00;61774.03;4994723;28;20085;-70
2022/04/17 00:31:23;;;;;;;6.13;3.38;;;;;;;-139.48;100.00;61774.03;4995398;28;20081;-71
2022/04/17 00:34:06;;;;;;;;;;;;;;;-139.48;100.00;61774.03;4994866;28;20049;-70
2022/04/17 00:36:50;;;;;;;5.73;2.90;;;;;;;-139.48;100.00;61774.03;4995413;28;19920;-70
2022/04/17 00:39:34;;;;;;;4.45;3.20;;;;;;;-139.48;100.00;61774.03;4995558;28;20049;-70
2022/04/17 00:42:19;;;;;;;5.18;2.78;;;;;;;-139.48;100.00;61774.03;4995559;28;20130;-70
2022/04/17 00:45:03;;;;;;;7.88;3.42;;;;;;;-139.48;100.00;61774.03;4980417;28;20100;-69
2022/04/17 00:47:47;;;;;;;4.13;3.20;;;;;;;-139.48;100.00;61774.03;4995165;28;20045;-70
2022/04/17 00:50:31;;;;;;;6.40;3.55;;;;;;;-139.48;100.00;61774.03;4993993;28;20101;-70
2022/04/17 00:53:15;;;;;;;5.57;3.60;;;;;;;-139.48;100.00;61774.03;4994090;28;20053;-70
2022/04/17 00:55:59;;;;;;;5.38;2.55;;;;;;;-139.48;100.00;61774.03;4995071;28;20060;-70
2022/04/17 00:58:44;;;;;;;5.05;3.38;;;;;;;-139.48;100.00;61774.03;4994295;28;20128;-70
2022/04/17 01:01:38;;;;;;;5.35;3.63;;;;;;;-139.48;100.00;61774.03;4995144;28;20378;-70
2022/04/17 01:04:22;;;;;;;3.30;2.90;;;;;;;-139.48;100.00;61774.03;4994106;28;20045;-70
2022/04/17 01:07:06;;;;;;;5.25;3.00;;;;;;;-139.48;100.00;61774.03;4994156;28;20053;-71
2022/04/17 01:09:51;;;;;;;4.30;2.90;;;;;;;-139.48;100.00;61774.03;4994099;28;20133;-69
2022/04/17 01:12:36;;;;;;;4.93;3.38;;;;;;;-139.48;100.00;61774.03;4993933;28;20049;-70
2022/04/17 01:15:21;;;;;;;4.07;3.28;;;;;;;-139.48;100.00;61774.03;4980233;28;20069;-70
2022/04/17 01:18:05;;;;;;;3.17;2.88;;;;;;;-139.48;100.00;61774.03;4993926;28;20057;-69
2022/04/17 01:20:49;;;;;;;5.40;3.38;;;;;;;-139.48;100.00;61774.03;5032222;22;20409;-70
2022/04/17 01:29:40;;;;;;;7.68;3.65;;;;;;;-139.48;100.00;61774.03;5021815;28;20106;-70
2022/04/17 01:32:24;;;;;;;5.88;3.35;;;;;;;-139.48;100.00;61774.03;5014310;28;20037;-70
2022/04/17 01:35:08;;;;;;;7.60;4.10;;;;;;;-139.48;100.00;61774.03;4999120;28;20096;-70
2022/04/17 01:37:52;;;;;;;7.13;2.88;;;;;;;-139.48;100.00;61774.03;4999565;28;20132;-70
2022/04/17 01:40:36;;;;;;;;;;;;;;;-139.48;100.00;61774.03;5014203;28;20044;-70
2022/04/17 01:43:20;;;;;;;4.67;3.07;;;;;;;-139.48;100.00;61774.03;5013146;28;19920;-69
2022/04/17 01:46:04;;;;;;;5.03;3.10;;;;;;;-139.48;100.00;61774.03;4999206;28;20474;-69
2022/04/17 01:48:48;;;;;;;4.78;3.25;;;;;;;-139.48;100.00;61774.03;4999324;28;20456;-70
2022/04/17 01:51:37;;;;;;;5.63;2.92;;;;;;;-139.48;100.00;61774.03;5013671;28;20052;-69
2022/04/17 01:54:22;;;;;;;6.88;3.10;;;;;;;-139.48;100.00;61774.03;4985527;28;20048;-69
2022/04/17 01:57:06;;;;;;;5.47;3.40;;;;;;;-139.48;100.00;61774.03;5013646;28;20183;-69
2022/04/17 01:59:50;;;;;;;4.00;2.80;;;;;;;-139.48;100.00;61774.03;4998776;28;20068;-69
2022/04/17 02:02:34;;;;;;;7.38;2.90;;;;;;;-139.48;100.00;61774.03;4999247;28;20088;-69
2022/04/17 02:05:18;;;;;;;3.85;2.88;;;;;;;-139.48;100.00;61774.03;4985226;28;20048;-69
2022/04/17 02:08:02;;;;;;;6.85;3.15;;;;;;;-139.48;100.00;61774.03;4985067;28;20425;-69
2022/04/17 02:10:46;;;;;;;3.75;3.05;;;;;;;-139.48;100.00;61774.03;4998776;28;20052;-69
2022/04/17 02:13:30;;;;;;;6.70;3.60;;;;;;;-139.48;100.00;61774.03;5013463;28;20060;-70
2022/04/17 02:16:15;;;;;;;3.72;3.33;;;;;;;-139.48;100.00;61774.03;5013782;28;20056;-69
2022/04/17 02:19:00;;;;;;;5.70;3.40;;;;;;;-139.48;100.00;61774.03;4998821;28;20048;-69
2022/04/17 02:21:44;;;;;;;4.57;3.20;;;;;;;-139.48;100.00;61774.03;4998547;28;20053;-69
2022/04/17 02:24:28;;;;;;;5.55;3.33;;;;;;;-139.48;100.00;61774.03;4984903;28;20094;-69
2022/04/17 02:27:12;;;;;;;3.75;3.10;;;;;;;-139.48;100.00;61774.03;4998495;28;20187;-69
2022/04/17 02:29:56;;;;;;;6.75;3.30;;;;;;;-139.48;100.00;61774.03;4998309;28;20067;-69
2022/04/17 02:32:40;;;;;;;5.13;3.30;;;;;;;-139.48;100.00;61774.03;5014450;28;20091;-69
2022/04/17 02:35:24;;;;;;;4.90;3.00;;;;;;;-139.48;100.00;61774.03;5002747;28;20129;-69
2022/04/17 02:38:08;;;;;;;3.55;3.08;;;;;;;-139.48;100.00;61774.03;5002597;28;20108;-69
2022/04/17 02:40:53;;;;;;;7.15;3.58;;;;;;;-139.48;100.00;61774.03;5017407;28;20045;-70
2022/04/17 02:43:37;;;;;;;4.63;3.20;;;;;;;-139.48;100.00;61774.03;5002243;28;20051;-69
2022/04/17 02:49:24;;;;;;;5.88;4.05;;;;;;;-139.48;100.00;61774.03;5017276;28;20525;-69
2022/04/17 02:52:08;;;;;;;4.55;3.67;;;;;;;-139.48;100.00;61774.03;5001920;28;20140;-69
2022/04/17 02:54:53;;;;;;;6.43;3.47;;;;;;;-139.48;100.00;61774.03;5017199;28;20052;-69
2022/04/17 02:57:37;;;;;;;4.80;3.72;;;;;;;-139.48;100.00;61774.03;5017148;28;20088;-69
2022/04/17 03:00:22;;;;;;;5.80;3.50;;;;;;;-139.48;100.00;61774.03;5002030;28;20111;-69
2022/04/17 03:06:10;;;;;;;3.90;3.25;;;;;;;-139.48;100.00;61774.03;5016949;28;20049;-69
2022/04/17 03:08:54;;;;;;;4.93;3.40;;;;;;;-139.48;100.00;61774.03;5016781;28;20064;-69
2022/04/17 03:11:38;;;;;;;4.65;2.90;;;;;;;-139.48;100.00;61774.03;5001606;28;20045;-69
2022/04/17 03:14:22;;;;;;;3.78;3.05;;;;;;;-139.48;100.00;61774.03;5001672;28;20074;-69
2022/04/17 03:17:06;;;;;;;4.70;3.75;;;;;;;-139.48;100.00;61774.03;5016718;28;20048;-70
2022/04/17 03:19:52;;;;;;;3.95;3.17;;;;;;;-139.48;100.00;61774.03;5001854;28;20464;-69
2022/04/17 03:22:41;;;;;;;5.75;3.35;;;;;;;-139.48;100.00;61774.03;5001881;28;20111;-69
2022/04/17 03:25:24;;;;;;;3.60;3.00;;;;;;;-139.48;100.00;61774.03;5001766;28;20048;-70
2022/04/17 03:28:08;;;;;;;5.00;3.33;;;;;;;-139.48;100.00;61774.03;5016593;28;20053;-69
2022/04/17 03:30:53;;;;;;;6.72;3.88;;;;;;;-139.48;100.00;61774.03;5001247;28;20049;-70
2022/04/17 03:33:37;;;;;;;5.50;3.90;;;;;;;-139.48;100.00;61774.03;5001399;28;20136;-69
2022/04/17 03:36:20;;;;;;;5.65;3.88;;;;;;;-139.48;100.00;61774.03;5016461;28;20044;-69
2022/04/17 03:39:05;;;;;;;7.80;3.95;;;;;;;-139.48;100.00;61774.03;5001558;28;20084;-69
2022/04/17 03:41:49;;;;;;;4.38;3.08;;;;;;;-139.48;100.00;61774.03;5001521;28;20461;-69
2022/04/17 03:44:33;;;;;;;4.72;3.30;;;;;;;-139.48;100.00;61774.03;5000684;28;20041;-69
2022/04/17 03:47:17;;;;;;;4.10;3.33;;;;;;;-139.48;100.00;61774.03;4987571;28;20053;-69
2022/04/17 03:50:03;;;;;;;4.85;3.22;;;;;;;-139.48;100.00;61774.03;5001128;28;20508;-69
2022/04/17 03:52:48;;;;;;;4.20;3.13;;;;;;;-139.48;100.00;61774.03;5001361;28;20081;-69
2022/04/17 03:55:33;;;;;;;5.15;3.13;;;;;;;-139.48;100.00;61774.03;5016040;28;20052;-69
2022/04/17 03:58:16;;;;;;;4.40;3.28;;;;;;;-139.48;100.00;61774.03;5000836;28;20053;-69
2022/04/17 04:01:00;;;;;;;8.05;3.28;;;;;;;-139.48;100.00;61774.03;5015615;28;20502;-69
2022/04/17 04:03:45;;;;;;;5.85;3.80;;;;;;;-139.48;100.00;61774.03;5000751;28;20471;-69
2022/04/17 04:06:30;;;;;;;4.88;3.60;;;;;;;-139.48;100.00;61774.03;4987447;28;20053;-69
2022/04/17 04:09:13;;;;;;;6.28;3.42;;;;;;;-139.48;100.00;61774.03;5000894;28;20145;-69
2022/04/17 04:11:57;;;;;;;4.35;3.05;;;;;;;-139.48;100.00;61774.03;5000798;28;20192;-69
2022/04/17 04:14:41;;;;;;;5.10;3.65;;;;;;;-139.48;100.00;61774.03;5000555;28;20065;-69
2022/04/17 04:17:25;;;;;;;3.80;3.40;;;;;;;-139.48;100.00;61774.03;5001038;28;20402;-69
2022/04/17 04:20:10;;;;;;;6.88;3.85;;;;;;;-139.48;100.00;61774.03;5000267;28;20049;-69
2022/04/17 04:22:55;;;;;;;5.07;3.63;;;;;;;-139.48;100.00;61774.03;5000385;28;20048;-69
2022/04/17 04:25:39;;;;;;;7.05;3.90;;;;;;;-139.48;100.00;61774.03;5015442;28;20096;-69
2022/04/17 04:28:38;;;;;;;7.85;3.78;;;;;;;-139.48;100.00;61774.03;5000485;28;20095;-69
2022/04/17 04:31:22;;;;;;;6.78;3.83;;;;;;;-139.48;100.00;61774.03;5002561;28;20092;-69
2022/04/17 04:34:06;;;;;;;6.32;3.63;;;;;;;-139.48;100.00;61774.03;5015011;28;20583;-69
2022/04/17 04:36:50;;;;;;;5.43;3.42;;;;;;;-139.48;100.00;61774.03;5000399;28;20104;-69
2022/04/17 04:39:34;;;;;;;3.92;3.50;;;;;;;-139.48;100.00;61774.03;5015246;28;20120;-69
2022/04/17 04:42:21;;;;;;;7.68;3.70;;;;;;;-139.48;100.00;61774.03;5015145;28;20516;-69
2022/04/17 04:48:08;;;;;;;5.63;3.65;;;;;;;-139.48;100.00;61774.03;5002953;28;20136;-69
2022/04/17 04:50:52;;;;;;;6.38;3.63;;;;;;;-139.48;100.00;61774.03;5000195;28;20045;-69
2022/04/17 04:53:36;;;;;;;5.32;3.40;;;;;;;-139.48;100.00;61774.03;4986328;28;20059;-69
2022/04/17 04:56:20;;;;;;;7.55;3.65;;;;;;;-139.48;100.00;61774.03;4999124;28;20049;-69
2022/04/17 04:59:05;;;;;;;6.45;3.60;;;;;;;-139.48;100.00;61774.03;5014597;28;20052;-69
2022/04/17 05:01:49;;;;;;;4.55;3.83;;;;;;;-139.48;100.00;61774.03;4986417;28;20045;-69
2022/04/17 05:04:33;;;;;;;4.85;3.58;;;;;;;-139.48;100.00;61774.03;5014519;28;20095;-69
2022/04/17 05:07:17;;;;;;;4.53;3.53;;;;;;;-139.48;100.00;61774.03;4999554;28;20104;-69
2022/04/17 05:10:01;;;;;;;5.50;3.70;;;;;;;-139.48;100.00;61774.03;4999630;28;20104;-69
2022/04/17 05:12:45;;;;;;;4.90;3.75;;;;;;;-139.48;100.00;61774.03;4986064;28;20076;-69
2022/04/17 05:15:29;;;;;;;4.80;4.05;;;;;;;-139.48;100.00;61774.03;4999681;28;20056;-69
2022/04/17 05:18:13;;;;;;;8.10;3.90;;;;;;;-139.48;100.00;61774.03;4999668;28;20052;-69
2022/04/17 05:20:57;;;;;;;5.45;3.50;;;;;;;-139.48;100.00;61774.03;5013983;28;20513;-69
2022/04/17 05:23:41;;;;;;;5.15;3.92;;;;;;;-139.48;100.00;61774.03;4999317;28;20559;-69
2022/04/17 05:26:25;;;;;;;4.75;3.70;;;;;;;-139.48;100.00;61774.03;5014122;28;20040;-69
2022/04/17 05:29:09;;;;;;;5.97;4.05;;;;;;;-139.48;100.00;61774.03;5014312;28;20088;-69
2022/04/17 05:31:53;;;;;;;8.27;4.32;;;;;;;-139.48;100.00;61774.03;4998990;28;20081;-69
2022/04/17 05:34:37;;;;;;;5.05;3.60;;;;;;;-139.48;100.00;61774.03;5014530;28;20060;-69
2022/04/17 05:37:21;;;;;;;6.97;3.83;;;;;;;-139.48;100.00;61774.03;4999077;28;20100;-69
2022/04/17 05:40:05;;;;;;;4.72;3.72;;;;;;;-139.48;100.00;61774.03;5013835;28;20049;-69
2022/04/17 05:42:49;;;;;;;5.38;4.10;;;;;;;-139.48;100.00;61774.03;5014339;28;20095;-69
2022/04/17 05:45:34;;;;;;;5.78;4.30;;;;;;;-139.48;100.00;61774.03;4999518;28;20132;-69
2022/04/17 05:48:18;;;;;;;5.47;3.80;;;;;;;-139.48;100.00;61774.03;4999091;28;20426;-69
2022/04/17 05:51:02;;;;;;;4.57;3.35;;;;;;;-139.48;100.00;61774.03;4999012;28;20048;-70
2022/04/17 05:53:46;;;;;;;5.15;3.60;;;;;;;-139.48;100.00;61774.03;5013984;28;20053;-69
2022/04/17 05:56:31;;;;;;;5.40;3.42;;;;;;;-139.48;100.00;61774.03;5013665;28;20103;-69
2022/04/17 05:59:15;;;;;;;5.20;3.80;;;;;;;-139.48;100.00;61774.03;5013876;28;20504;-69
2022/04/17 06:01:58;;;;;;;6.75;4.13;;;;;;;-139.48;100.00;61774.03;4998658;28;20129;-69
2022/04/17 06:04:42;;;;;;;7.88;4.05;;;;;;;-139.48;100.00;61774.03;5013574;28;20129;-69
2022/04/17 06:07:27;;;;;;;5.82;4.05;;;;;;;-139.48;100.00;61774.03;4998901;28;20140;-69
2022/04/17 06:10:12;;;;;;;6.28;4.30;;;;;;;-139.48;100.00;61774.03;4998490;28;20125;-69
2022/04/17 06:12:56;;;;;;;6.03;3.88;;;;;;;-139.48;100.00;61774.03;4998711;28;20527;-69
2022/04/17 06:15:40;;;;;;;7.45;4.40;;;;;;;-139.48;100.00;61774.03;4998594;28;20053;-69
2022/04/17 06:18:25;;;;;;;4.82;3.88;;;;;;;-139.48;100.00;61774.03;4999096;28;20084;-69
2022/04/17 06:21:10;;;;;;;6.82;4.47;;;;;;;-139.48;100.00;61774.03;5013219;28;20105;-69
2022/04/17 06:23:54;;;;;;;5.45;3.60;;;;;;;-139.48;100.00;61774.03;5013364;28;20049;-69
2022/04/17 06:26:39;;;;;;;7.40;4.25;;;;;;;-139.48;100.00;61774.03;4998762;28;20096;-70
2022/04/17 06:29:23;;;;;;;5.72;3.70;;;;;;;-139.48;100.00;61774.03;5013317;28;20579;-69
2022/04/17 06:32:07;;;;;;;6.68;4.43;;;;;;;-139.48;100.00;61774.03;4998325;28;20052;-69
2022/04/17 06:34:51;;;;;;;4.78;3.63;;;;;;;-139.48;100.00;61774.03;4999012;28;20044;-70
2022/04/17 06:37:55;;;;;;;7.47;4.10;;;;;;;-139.48;100.00;61774.03;4984674;28;20421;-69
2022/04/17 06:40:39;;;;;;;7.78;4.72;;;;;;;-139.48;100.00;61774.03;4998561;28;20048;-69
2022/04/17 06:43:24;;;;;;;6.60;4.00;;;;;;;-139.48;100.00;61774.03;5013214;28;20045;-69
2022/04/17 06:46:08;;;;;;;7.45;4.10;;;;;;;-139.48;100.00;61774.03;4998359;28;20414;-69
2022/04/17 06:48:52;;;;;;;5.50;4.13;;;;;;;-139.48;100.00;61774.03;5013415;28;20597;-69
2022/04/17 06:51:35;;;;;;;7.57;4.32;;;;;;;-139.48;100.00;61774.03;5013092;28;20107;-69
2022/04/17 06:54:19;;;;;;;9.10;3.78;;;;;;;-139.48;100.00;61774.03;5013328;28;20413;-69
2022/04/17 06:57:03;;;;;;;9.38;4.05;;;;;;;-139.48;100.00;61774.03;5013611;28;20076;-69
2022/04/17 06:59:48;;;;;;;6.82;3.97;;;;;;;-139.48;100.00;61774.03;4998567;28;20088;-69
2022/04/17 07:02:32;;;;;;;4.40;3.72;;;;;;;-139.48;100.00;61774.03;4998295;28;20049;-69
2022/04/17 07:05:16;;;;;;;4.05;3.13;;;;;;;-139.48;100.00;61774.03;5012998;28;20103;-69
2022/04/17 07:08:03;;;;;;;6.30;3.30;;;;;;;-139.48;100.00;61774.03;4998423;28;20049;-69
2022/04/17 07:10:47;;;;;;;5.93;3.35;;;;;;;-139.48;100.00;61774.03;4998108;28;20092;-70
2022/04/17 07:13:31;;;;;;;4.18;3.58;;;;;;;-139.48;100.00;61774.03;5013197;28;20052;-69
2022/04/17 07:16:15;;;;;;;4.57;3.80;;;;;;;-139.48;100.00;61774.03;5013214;28;20115;-69
2022/04/17 07:18:58;;;;;;;4.95;3.25;;;;;;;-139.48;100.00;61774.03;4998458;28;20100;-69
2022/04/17 07:21:42;;;;;;;6.18;3.47;;;;;;;-139.48;100.00;61774.03;5002630;28;20136;-69
2022/04/17 07:24:26;;;;;;;4.72;3.20;;;;;;;-139.48;100.00;61774.03;5001784;28;20052;-69
2022/04/17 07:27:16;;;;;;;6.97;3.53;;;;;;;-139.48;100.00;61774.03;5001491;28;20180;-69
2022/04/17 07:30:00;;;;;;;5.68;3.15;;;;;;;-139.48;100.00;61774.03;5002134;28;20041;-69
2022/04/17 07:32:48;;;;;;;6.78;3.88;;;;;;;-139.48;100.00;61774.03;5016532;28;20048;-69
2022/04/17 07:35:32;;;;;;;3.70;2.85;;;;;;;-139.48;100.00;61774.03;5001568;28;20155;-69
2022/04/17 07:38:16;;;;;;;6.72;3.45;;;;;;;-139.48;100.00;61774.03;5001201;28;20049;-69
2022/04/17 07:41:00;;;;;;;5.80;3.42;;;;;;;-139.48;100.00;61774.03;5016002;28;20176;-69
2022/04/17 07:43:44;;;;;;;3.67;2.85;;;;;;;-139.48;100.00;61774.03;5001694;28;20080;-69
2022/04/17 07:46:29;;;;;;;5.68;3.38;;;;;;;-139.48;100.00;61774.03;5001427;28;20063;-70
2022/04/17 07:49:13;;;;;;;4.70;3.47;;;;;;;-139.48;100.00;61774.03;5015893;28;20108;-69
2022/04/17 07:51:57;;;;;;;5.03;3.20;;;;;;;-139.48;100.00;61774.03;4987103;28;20530;-69
2022/04/17 07:54:41;;;;;;;5.05;3.55;;;;;;;-139.48;100.00;61774.03;5000886;28;20053;-69
2022/04/17 07:57:25;;;;;;;5.43;3.10;;;;;;;-139.48;100.00;61774.03;5016321;28;20422;-69
2022/04/17 08:00:09;;;;;;;4.55;3.00;;;;;;;-139.48;100.00;61774.03;5000820;28;20129;-70
2022/04/17 08:03:06;;;;;;;4.93;3.60;;;;;;;-139.48;100.00;61774.03;5015751;28;20048;-70
2022/04/17 08:05:51;;;;;;;7.93;2.88;;;;;;;-139.48;100.00;61774.03;4988852;28;20092;-70
2022/04/17 08:08:39;;;;;;;4.30;2.80;;;;;;;-139.48;100.00;61774.03;5001264;28;20096;-69
2022/04/17 08:11:24;;;;;;;3.58;2.67;;;;;;;-139.48;100.00;61774.03;5015409;28;20049;-70
2022/04/17 08:14:08;;;;;;;6.82;3.15;;;;;;;-139.48;100.00;61774.03;5015456;28;20057;-70
2022/04/17 08:16:52;;;;;;;3.70;2.60;;;;;;;-139.48;100.00;61774.03;4987080;28;20096;-69
2022/04/17 08:19:36;;;;;;;2.58;2.38;;;;;;;-139.48;100.00;61774.03;5015605;28;20096;-69
2022/04/17 08:22:22;;;;;;;4.80;2.72;;;;;;;-139.48;100.00;61774.03;5000349;28;20484;-70
2022/04/17 08:25:07;;;;;;;5.15;3.25;;;;;;;-139.48;100.00;61774.03;5000645;28;20053;-69
2022/04/17 08:27:53;;;;;;;3.42;2.63;;;;;;;-139.48;100.00;61774.03;5015173;28;20045;-70
2022/04/17 08:30:37;;;;;;;9.02;2.70;;;;;;;-139.48;100.00;61774.03;5000177;28;20524;-70
2022/04/17 08:33:21;;;;;;;4.75;2.70;;;;;;;-139.48;100.00;61774.03;5000303;28;20049;-69
2022/04/17 08:36:07;;;;;;;5.32;2.70;;;;;;;-139.48;100.00;61774.03;5000476;28;20053;-70
2022/04/17 08:38:51;;;;;;;4.93;2.90;;;;;;;-139.48;100.00;61774.03;5000229;28;20076;-70
2022/04/17 08:41:35;;;;;;;4.32;2.25;;;;;;;-139.48;100.00;61774.03;5014970;28;20104;-69
2022/04/17 08:44:21;;;;;;;5.78;2.30;;;;;;;-139.48;100.00;61774.03;5000282;28;20052;-70
2022/04/17 08:47:07;;;;;;;2.85;2.08;;;;;;;-139.48;100.00;61774.03;5000286;28;20620;-69
2022/04/17 08:49:53;;;;;;;3.30;2.13;;;;;;;-139.48;100.00;61774.03;5000297;28;20567;-70
2022/04/17 08:52:38;;;;;;;2.53;2.15;;;;;;;-139.48;100.00;61774.03;4986513;28;20045;-69
2022/04/17 08:55:22;;;;;;;2.05;1.80;;;;;;;-139.48;100.00;61774.03;4986119;28;20056;-69
2022/04/17 08:58:06;;;;;;;3.38;1.90;;;;;;;-139.48;100.00;61774.03;4999758;28;20073;-69
2022/04/17 09:00:50;;;;;;;5.60;2.35;;;;;;;-139.48;100.00;61774.03;4999864;28;20080;-69
2022/04/17 09:03:34;;;;;;;2.35;1.90;;;;;;;-139.48;100.00;61774.03;5015003;28;20061;-69
2022/04/17 09:06:19;;;;;;;2.55;2.30;;;;;;;-139.48;100.00;61774.03;4999908;28;20541;-69
2022/04/17 09:09:05;;;;;;;3.03;2.10;;;;;;;-139.48;100.00;61774.03;4999690;28;20119;-69
2022/04/17 09:11:53;;;;;;;2.30;1.77;;;;;;;-139.48;100.00;61774.03;5014469;28;20103;-69
2022/04/17 09:14:39;;;;;;;5.32;1.92;;;;;;;-139.48;100.00;61774.03;4999828;28;20075;-69
2022/04/17 09:17:31;;;;;;;3.78;2.30;;;;;;;-139.48;100.00;61774.03;4999449;28;20048;-69
2022/04/17 09:20:20;;;;;;;5.70;2.22;;;;;;;-139.48;100.00;61774.03;4999465;28;20056;-69
2022/04/17 09:23:04;;;;;;;3.67;2.00;;;;;;;-139.48;100.00;61774.03;4986261;28;20065;-69
2022/04/17 09:25:48;;;;;;;2.95;1.92;;;;;;;-139.48;100.00;61774.03;4985865;28;20044;-69
2022/04/17 09:28:34;;;;;;;4.18;2.05;;;;;;;-139.48;100.00;61774.03;4999540;28;20115;-69
2022/04/17 09:31:18;;;;;;;3.75;2.00;;;;;;;-139.48;100.00;61774.03;4999130;28;20100;-69
2022/04/17 09:34:07;;;;;;;3.50;1.83;;;;;;;-139.48;100.00;61774.03;5013985;28;20072;-69
2022/04/17 09:36:52;;;;;;;5.03;2.05;;;;;;;-139.48;100.00;61774.03;4999418;28;20111;-69
2022/04/17 09:39:36;;;;;;;2.10;1.50;;;;;;;-139.48;100.00;61774.03;4999436;28;20052;-69
2022/04/17 09:42:25;;;;;;;8.40;2.20;;;;;;;-139.48;100.00;61774.03;5013316;28;20049;-69
2022/04/17 09:45:08;;;;;;;2.22;1.73;;;;;;;-139.48;100.00;61774.03;4999248;28;20049;-69
2022/04/17 09:47:56;;;;;;;3.00;1.70;;;;;;;-139.48;100.00;61774.03;4999199;28;20049;-69
2022/04/17 09:50:40;;;;;;;6.93;2.30;;;;;;;-139.48;100.00;61774.03;4998937;28;20073;-69
2022/04/17 09:53:37;;;;;;;4.03;1.80;;;;;;;-139.48;100.00;61774.03;4998846;28;20152;-69
2022/04/17 09:56:29;;;;;;;4.18;2.15;;;;;;;-139.48;100.00;61774.03;4999069;28;20052;-69
2022/04/17 09:59:23;;;;;;;3.53;1.70;;;;;;;-139.48;100.00;61774.03;4999124;28;20052;-69
2022/04/17 10:02:08;;;;;;;4.87;1.90;;;;;;;-139.48;100.00;61774.03;4998682;28;20052;-70
2022/04/17 10:04:53;;;;;;;4.63;2.10;;;;;;;-139.48;100.00;61774.03;4998752;28;20782;-70
2022/04/17 10:07:41;;;;;;;3.20;1.92;;;;;;;-139.48;100.00;61774.03;4985272;28;20180;-70
2022/04/17 10:10:26;;;;;;;5.07;2.20;;;;;;;-139.48;100.00;61774.03;5013872;28;20093;-70
2022/04/17 10:13:09;;;;;;;;;;;;;;;-139.48;100.00;61774.03;4985763;28;20045;-70
2022/04/17 10:15:58;;;;;;;4.95;3.83;;;;;;;-139.48;100.00;61774.03;5012544;28;19920;-69
2022/04/17 10:18:43;;;;;;;2.88;2.60;;;;;;;-139.48;100.00;61774.03;5013449;28;20052;-70
2022/04/17 10:21:28;;;;;;;3.38;2.20;;;;;;;-139.48;100.00;61774.03;4998453;28;20060;-70
2022/04/17 10:24:16;;;;;;;3.33;2.45;;;;;;;-139.48;100.00;61774.03;4998826;28;20467;-70
2022/04/17 10:27:01;;;;;;;3.25;2.70;;;;;;;-139.48;100.00;61774.03;4998527;28;20056;-70
2022/04/17 10:30:04;;;;;;;2.80;2.45;;;;;;;-139.48;100.00;61774.03;4998769;28;20492;-70
2022/04/17 10:33:16;;;;;;;7.00;4.50;;;;;;;-139.48;100.00;61774.03;4999043;28;20382;-70
2022/04/17 10:36:14;;;;;;;3.63;2.53;;;;;;;-139.48;100.00;61774.03;4998295;28;20084;-70
2022/04/17 10:39:13;;;;;;;4.07;2.72;;;;;;;-139.48;100.00;61774.03;4998423;28;20045;-70
2022/04/17 10:41:58;;;;;;;4.25;2.55;;;;;;;-139.48;100.00;61774.03;4985030;28;20064;-70
2022/04/17 10:44:42;;;;;;;5.78;4.10;;;;;;;-139.48;100.00;61774.03;4998879;28;20053;-70
2022/04/17 10:47:27;;;;;;;6.57;2.80;;;;;;;-139.48;100.00;61774.03;4998607;28;20409;-70
2022/04/17 10:50:11;;;;;;;3.80;2.63;;;;;;;19.65;74.87;100264.28;4998502;28;20092;-70
2022/04/17 10:52:55;;;;;;;2.90;2.38;;;;;;;26.27;22.46;101391.59;4998304;28;20080;-70
2022/04/17 10:56:02;;;;;;;4.40;3.65;;;;;;;-139.48;100.00;61774.03;5016028;28;20095;-70
2022/04/17 10:58:56;;;;;;;5.30;2.50;;;;;;;-139.48;100.00;61774.03;5016874;28;20044;-70
2022/04/17 11:01:43;;;;;;;3.30;2.50;;;;;;;-139.48;21.36;61774.03;5016727;28;20044;-70
2022/04/17 11:04:29;;;;;;;3.72;2.97;;;;;;;27.48;20.57;101377.16;5016793;28;20103;-70
2022/04/17 11:07:13;;;;;;;4.47;2.65;;;;;;;28.19;20.32;101378.19;4988367;28;20141;-70
2022/04/17 11:10:06;;;;;;;4.07;3.22;;;;;;;29.87;18.63;101357.13;5016838;28;20060;-70
2022/04/17 11:12:55;;;;;;;4.30;2.47;;;;;;;29.66;19.27;101360.53;4988254;28;20100;-70
2022/04/17 11:15:42;;;;;;;3.78;2.30;;;;;;;30.12;19.01;101364.00;5002057;28;20505;-69
2022/04/17 11:18:27;;;;;;;4.80;2.60;;;;;;;29.01;20.08;101361.75;5002237;28;20053;-70
2022/04/17 11:21:11;;;;;;;4.13;3.13;;;;;;;30.31;18.54;101361.88;5016390;28;20044;-70
2022/04/17 11:24:00;;;;;;;4.35;2.60;;;;;;;30.58;18.90;101354.66;5016399;28;20045;-70
2022/04/17 11:26:53;;;;;;;4.65;2.97;;;;;;;30.15;19.19;101343.41;5002064;28;20100;-70
2022/04/17 11:29:37;;;;;;;4.40;2.20;;;;;;;29.91;18.77;101339.06;5016859;28;20095;-70
2022/04/17 11:32:21;;;;;;;1.98;1.88;;;;;;;30.27;18.64;101344.19;5016400;28;20052;-68
2022/04/17 11:35:07;;;;;;;2.30;1.85;;;;;;;30.27;17.88;101333.19;5016364;28;20563;-70
2022/04/17 11:37:54;;;;;;;5.85;2.03;;;;;;;29.02;18.71;101338.72;5001583;28;20501;-70
2022/04/17 11:40:38;;;;;;;5.55;2.10;;;;;;;28.59;19.20;101338.16;5015309;28;20057;-70
2022/04/17 11:43:22;;;;;;;10.45;2.17;;;;;;;26.24;20.78;101337.38;5001697;28;20501;-70
2022/04/17 11:46:06;;;;;;;4.88;2.70;;;;;;;27.90;20.39;101326.94;5015999;28;20115;-70
2022/04/17 11:48:53;;;;;;;4.18;2.20;;;;;;;27.88;18.97;101320.84;5016233;28;20068;-70
2022/04/17 11:51:43;;;;;;;4.50;1.80;;;;;;;28.72;19.51;101309.66;4987349;28;20060;-70
2022/04/17 11:54:33;;;;;;;3.80;1.73;;;;;;;28.42;18.71;101304.25;5015838;28;20052;-69
2022/04/17 11:57:20;;;;;;;2.35;1.88;;;;;;;28.49;19.21;101290.41;5000950;28;20461;-70
2022/04/17 12:00:05;;;;;;;3.20;2.30;;;;;;;28.00;19.56;101297.06;5015673;28;20417;-69
2022/04/17 12:03:00;;;;;;;1.98;1.77;;;;;;;27.66;21.33;101305.94;5000843;28;20513;-70
2022/04/17 12:05:45;;;;;;;1.77;1.67;;;;;;;29.58;18.60;101308.66;5000465;28;20111;-70
2022/04/17 12:08:36;;;;;;;2.08;1.85;;;;;;;29.06;18.41;101295.97;5000714;28;20057;-70
2022/04/17 12:11:20;;;;;;;2.15;1.85;;;;;;;29.70;18.63;101293.00;5000599;28;20552;-70
2022/04/17 12:14:04;;;;;;;2.05;1.80;;;;;;;30.28;18.15;101290.81;5000849;28;20116;-70
2022/04/17 12:16:50;;;;;;;2.97;2.20;;;;;;;31.02;16.92;101273.88;5000829;28;20049;-70
2022/04/17 12:19:34;;;;;;;1.88;1.65;;;;;;;30.97;17.39;101271.06;5000680;28;20087;-70
2022/04/17 12:22:18;;;;;;;3.17;2.50;;;;;;;32.25;16.18;101263.88;5000271;28;20061;-70
2022/04/17 12:25:04;;;;;;;4.90;2.03;;;;;;;31.85;16.45;101260.72;5000714;28;20137;-70
2022/04/17 12:27:49;;;;;;;3.78;2.92;;;;;;;30.84;17.96;101249.41;5000538;28;20053;-70
2022/04/17 12:30:33;;;;;;;2.28;1.98;;;;;;;29.55;18.98;101254.22;5000508;28;20081;-70
2022/04/17 12:33:27;;;;;;;2.00;1.70;;;;;;;29.53;19.12;101256.38;5000096;28;20477;-70
2022/04/17 12:36:15;;;;;;;5.07;2.40;;;;;;;29.07;19.54;101252.88;5015346;28;20109;-70
2022/04/17 12:39:02;;;;;;;2.47;2.03;;;;;;;29.65;18.91;101246.16;5015188;28;20176;-70
2022/04/17 12:41:48;;;;;;;2.40;2.13;;;;;;;29.62;19.05;101246.66;5015052;28;20068;-71
2022/04/17 12:44:35;;;;;;;3.00;1.90;;;;;;;30.25;18.57;101236.31;5000553;28;20088;-70
2022/04/17 12:47:19;;;;;;;2.75;1.90;;;;;;;29.08;18.44;101229.81;4986706;28;20104;-70
2022/04/17 12:50:07;;;;;;;3.85;1.65;;;;;;;29.08;18.44;101229.81;5000053;28;20052;-69